sensor_id;sensor_type;location;lat;lon;timestamp;pressure;altitude;pressure_sealevel;temperature;humidity
83691;BME280;73671;43.220;0.064;2024-01-27T00:00:18;99490.91;;;6.57;66.80
83691;BME280;73671;43.220;0.064;2024-01-27T00:02:43;99486.84;;;6.78;66.35
83691;BME280;73671;43.220;0.064;2024-01-27T00:05:09;99489.69;;;6.92;65.76
83691;BME280;73671;43.220;0.064;2024-01-27T00:07:34;99482.59;;;6.77;66.28
83691;BME280;73671;43.220;0.064;2024-01-27T00:09:59;99487.09;;;6.28;68.66
83691;BME280;73671;43.220;0.064;2024-01-27T00:12:25;99494.97;;;5.77;70.65
83691;BME280;73671;43.220;0.064;2024-01-27T00:14:51;99491.81;;;6.01;69.29
83691;BME280;73671;43.220;0.064;2024-01-27T00:17:16;99484.13;;;6.03;69.78
83691;BME280;73671;43.220;0.064;2024-01-27T00:19:42;99481.38;;;6.33;68.89
83691;BME280;73671;43.220;0.064;2024-01-27T00:22:07;99479.63;;;6.48;68.06
83691;BME280;73671;43.220;0.064;2024-01-27T00:24:33;99477.00;;;6.59;67.78
83691;BME280;73671;43.220;0.064;2024-01-27T00:27:00;99475.13;;;6.67;67.41
83691;BME280;73671;43.220;0.064;2024-01-27T00:29:25;99477.94;;;6.74;67.18
83691;BME280;73671;43.220;0.064;2024-01-27T00:31:50;99468.59;;;6.68;67.52
83691;BME280;73671;43.220;0.064;2024-01-27T00:34:16;99472.28;;;6.52;67.79
83691;BME280;73671;43.220;0.064;2024-01-27T00:36:42;99466.94;;;6.59;67.81
83691;BME280;73671;43.220;0.064;2024-01-27T00:39:17;99458.22;;;6.36;68.56
83691;BME280;73671;43.220;0.064;2024-01-27T00:41:42;99463.72;;;6.43;67.98
83691;BME280;73671;43.220;0.064;2024-01-27T00:44:08;99459.16;;;6.54;68.22
83691;BME280;73671;43.220;0.064;2024-01-27T00:46:34;99467.63;;;6.49;68.74
83691;BME280;73671;43.220;0.064;2024-01-27T00:48:59;99461.88;;;6.54;68.50
83691;BME280;73671;43.220;0.064;2024-01-27T00:51:24;99461.88;;;6.54;68.82
83691;BME280;73671;43.220;0.064;2024-01-27T00:53:50;99448.75;;;6.56;68.79
83691;BME280;73671;43.220;0.064;2024-01-27T00:56:15;99443.56;;;6.41;69.17
83691;BME280;73671;43.220;0.064;2024-01-27T00:58:41;99443.75;;;6.21;69.86
83691;BME280;73671;43.220;0.064;2024-01-27T01:01:06;99446.34;;;6.10;69.36
83691;BME280;73671;43.220;0.064;2024-01-27T01:03:32;99438.66;;;6.12;69.18
83691;BME280;73671;43.220;0.064;2024-01-27T01:05:57;99438.50;;;5.98;69.46
83691;BME280;73671;43.220;0.064;2024-01-27T01:08:22;99429.78;;;5.85;69.61
83691;BME280;73671;43.220;0.064;2024-01-27T01:10:48;99449.38;;;6.05;68.85
83691;BME280;73671;43.220;0.064;2024-01-27T01:13:13;99437.16;;;6.19;68.95
83691;BME280;73671;43.220;0.064;2024-01-27T01:15:39;99438.06;;;6.30;68.04
83691;BME280;73671;43.220;0.064;2024-01-27T01:18:04;99432.72;;;6.37;68.27
83691;BME280;73671;43.220;0.064;2024-01-27T01:20:30;99435.09;;;6.42;68.25
83691;BME280;73671;43.220;0.064;2024-01-27T01:22:57;99428.16;;;6.45;67.79
83691;BME280;73671;43.220;0.064;2024-01-27T01:25:22;99429.69;;;6.42;67.95
83691;BME280;73671;43.220;0.064;2024-01-27T01:27:47;99428.91;;;6.42;68.01
83691;BME280;73671;43.220;0.064;2024-01-27T01:30:14;99428.13;;;6.41;68.63
83691;BME280;73671;43.220;0.064;2024-01-27T01:32:40;99420.38;;;6.40;68.71
83691;BME280;73671;43.220;0.064;2024-01-27T01:35:05;99428.84;;;6.38;68.25
83691;BME280;73671;43.220;0.064;2024-01-27T01:37:31;99414.94;;;6.36;67.47
83691;BME280;73671;43.220;0.064;2024-01-27T01:39:56;99413.78;;;6.37;67.75
83691;BME280;73671;43.220;0.064;2024-01-27T01:42:22;99414.94;;;6.36;67.04
83691;BME280;73671;43.220;0.064;2024-01-27T01:44:50;99414.94;;;6.36;67.01
83691;BME280;73671;43.220;0.064;2024-01-27T01:47:16;99421.91;;;6.37;67.29
83691;BME280;73671;43.220;0.064;2024-01-27T01:49:41;99417.66;;;6.36;66.81
83691;BME280;73671;43.220;0.064;2024-01-27T01:52:07;99426.16;;;6.38;66.44
83691;BME280;73671;43.220;0.064;2024-01-27T01:54:33;99418.44;;;6.40;66.71
83691;BME280;73671;43.220;0.064;2024-01-27T01:56:58;99422.38;;;6.46;66.86
83691;BME280;73671;43.220;0.064;2024-01-27T01:59:24;99419.69;;;6.50;67.31
83691;BME280;73671;43.220;0.064;2024-01-27T02:01:50;99422.81;;;6.52;67.09
83691;BME280;73671;43.220;0.064;2024-01-27T02:04:15;99423.59;;;6.52;68.07
83691;BME280;73671;43.220;0.064;2024-01-27T02:06:40;99420.50;;;6.54;68.62
83691;BME280;73671;43.220;0.064;2024-01-27T02:09:06;99420.94;;;6.56;69.15
83691;BME280;73671;43.220;0.064;2024-01-27T02:11:31;99414.41;;;6.61;69.64
83691;BME280;73671;43.220;0.064;2024-01-27T02:13:57;99419.75;;;6.53;70.53
83691;BME280;73671;43.220;0.064;2024-01-27T02:16:22;99416.28;;;6.56;69.88
83691;BME280;73671;43.220;0.064;2024-01-27T02:18:47;99415.16;;;6.57;70.91
83691;BME280;73671;43.220;0.064;2024-01-27T02:21:13;99419.34;;;6.51;70.85
83691;BME280;73671;43.220;0.064;2024-01-27T02:23:38;99415.16;;;6.57;71.21
83691;BME280;73671;43.220;0.064;2024-01-27T02:26:04;99419.03;;;6.60;70.63
83691;BME280;73671;43.220;0.064;2024-01-27T02:28:29;99419.06;;;6.64;71.08
83691;BME280;73671;43.220;0.064;2024-01-27T02:30:57;99417.53;;;6.66;70.34
83691;BME280;73671;43.220;0.064;2024-01-27T02:33:25;99404.69;;;6.56;71.35
83691;BME280;73671;43.220;0.064;2024-01-27T02:35:50;99403.38;;;5.71;73.59
83691;BME280;73671;43.220;0.064;2024-01-27T02:38:15;99398.97;;;5.29;75.27
83691;BME280;73671;43.220;0.064;2024-01-27T02:40:41;99395.00;;;5.50;74.46
83691;BME280;73671;43.220;0.064;2024-01-27T02:43:06;99391.78;;;5.71;73.20
83691;BME280;73671;43.220;0.064;2024-01-27T02:45:32;99392.81;;;5.93;72.59
83691;BME280;73671;43.220;0.064;2024-01-27T02:47:57;99390.75;;;5.83;72.57
83691;BME280;73671;43.220;0.064;2024-01-27T02:50:22;99389.50;;;5.43;74.81
83691;BME280;73671;43.220;0.064;2024-01-27T02:52:48;99388.47;;;4.98;75.82
83691;BME280;73671;43.220;0.064;2024-01-27T02:55:13;99387.44;;;4.79;77.26
83691;BME280;73671;43.220;0.064;2024-01-27T02:57:40;99391.94;;;4.72;77.54
83691;BME280;73671;43.220;0.064;2024-01-27T03:00:06;99394.28;;;4.73;76.74
83691;BME280;73671;43.220;0.064;2024-01-27T03:02:32;99393.66;;;4.83;77.05
83691;BME280;73671;43.220;0.064;2024-01-27T03:04:57;99390.88;;;5.03;76.17
83691;BME280;73671;43.220;0.064;2024-01-27T03:07:23;99385.66;;;5.17;75.38
83691;BME280;73671;43.220;0.064;2024-01-27T03:09:48;99381.78;;;4.65;75.58
83691;BME280;73671;43.220;0.064;2024-01-27T03:12:14;99382.75;;;4.76;76.94
83691;BME280;73671;43.220;0.064;2024-01-27T03:14:41;99380.69;;;4.93;76.11
83691;BME280;73671;43.220;0.064;2024-01-27T03:17:06;99378.31;;;4.87;76.07
83691;BME280;73671;43.220;0.064;2024-01-27T03:19:32;99380.81;;;5.00;75.64
83691;BME280;73671;43.220;0.064;2024-01-27T03:21:58;99379.41;;;4.83;75.37
83691;BME280;73671;43.220;0.064;2024-01-27T03:24:23;99377.56;;;4.64;76.86
83691;BME280;73671;43.220;0.064;2024-01-27T03:26:48;99368.34;;;4.92;75.09
83691;BME280;73671;43.220;0.064;2024-01-27T03:29:14;99372.19;;;4.91;75.07
83691;BME280;73671;43.220;0.064;2024-01-27T03:31:39;99374.66;;;5.03;74.91
83691;BME280;73671;43.220;0.064;2024-01-27T03:34:05;99371.47;;;4.94;74.92
83691;BME280;73671;43.220;0.064;2024-01-27T03:36:30;99368.03;;;4.70;75.36
83691;BME280;73671;43.220;0.064;2024-01-27T03:38:56;99362.09;;;4.61;76.10
83691;BME280;73671;43.220;0.064;2024-01-27T03:41:22;99361.91;;;4.73;75.73
83691;BME280;73671;43.220;0.064;2024-01-27T03:43:49;99368.03;;;4.70;75.42
83691;BME280;73671;43.220;0.064;2024-01-27T03:46:14;99367.28;;;4.73;75.43
83691;BME280;73671;43.220;0.064;2024-01-27T03:48:40;99355.16;;;4.86;75.00
83691;BME280;73671;43.220;0.064;2024-01-27T03:51:05;99349.16;;;4.97;75.23
83691;BME280;73671;43.220;0.064;2024-01-27T03:53:30;99354.53;;;4.97;74.93
83691;BME280;73671;43.220;0.064;2024-01-27T03:55:56;99352.72;;;4.78;76.00
83691;BME280;73671;43.220;0.064;2024-01-27T03:58:24;99344.88;;;4.69;76.59
83691;BME280;73671;43.220;0.064;2024-01-27T04:00:51;99339.38;;;4.88;75.94
83691;BME280;73671;43.220;0.064;2024-01-27T04:03:16;99343.78;;;5.00;75.26
83691;BME280;73671;43.220;0.064;2024-01-27T04:05:42;99340.88;;;5.13;74.61
83691;BME280;73671;43.220;0.064;2024-01-27T04:08:07;99339.06;;;5.20;74.65
83691;BME280;73671;43.220;0.064;2024-01-27T04:10:33;99334.88;;;5.26;74.39
83691;BME280;73671;43.220;0.064;2024-01-27T04:12:59;99334.94;;;5.30;74.47
83691;BME280;73671;43.220;0.064;2024-01-27T04:15:24;99335.72;;;5.30;74.39
83691;BME280;73671;43.220;0.064;2024-01-27T04:17:50;99330.41;;;5.38;74.64
83691;BME280;73671;43.220;0.064;2024-01-27T04:20:15;99335.78;;;5.34;74.49
83691;BME280;73671;43.220;0.064;2024-01-27T04:22:41;99330.22;;;5.23;74.90
83691;BME280;73671;43.220;0.064;2024-01-27T04:25:07;99322.63;;;5.32;74.69
83691;BME280;73671;43.220;0.064;2024-01-27T04:27:37;99322.53;;;5.25;75.14
83691;BME280;73671;43.220;0.064;2024-01-27T04:30:04;99318.66;;;5.23;74.85
83691;BME280;73671;43.220;0.064;2024-01-27T04:32:30;99317.72;;;5.12;75.56
83691;BME280;73671;43.220;0.064;2024-01-27T04:34:55;99326.88;;;5.03;75.58
83691;BME280;73671;43.220;0.064;2024-01-27T04:37:20;99327.56;;;4.70;75.81
83691;BME280;73671;43.220;0.064;2024-01-27T04:39:46;99314.97;;;4.55;76.97
83691;BME280;73671;43.220;0.064;2024-01-27T04:42:11;99310.00;;;4.57;78.04
83691;BME280;73671;43.220;0.064;2024-01-27T04:44:40;99312.91;;;4.44;76.67
83691;BME280;73671;43.220;0.064;2024-01-27T04:47:06;99310.28;;;4.25;78.33
83691;BME280;73671;43.220;0.064;2024-01-27T04:49:32;99313.19;;;4.16;79.04
83691;BME280;73671;43.220;0.064;2024-01-27T04:51:57;99305.34;;;4.08;78.73
83691;BME280;73671;43.220;0.064;2024-01-27T04:54:22;99308.59;;;4.17;78.70
83691;BME280;73671;43.220;0.064;2024-01-27T04:56:48;99310.16;;;4.18;78.53
83691;BME280;73671;43.220;0.064;2024-01-27T04:59:13;99305.69;;;4.29;78.04
83691;BME280;73671;43.220;0.064;2024-01-27T05:01:38;99303.53;;;4.38;77.72
83691;BME280;73671;43.220;0.064;2024-01-27T05:04:04;99299.94;;;4.54;77.37
83691;BME280;73671;43.220;0.064;2024-01-27T05:06:30;99297.25;;;4.54;77.00
83691;BME280;73671;43.220;0.064;2024-01-27T05:08:55;99306.25;;;4.38;77.54
83691;BME280;73671;43.220;0.064;2024-01-27T05:11:31;99304.31;;;4.39;78.09
83691;BME280;73671;43.220;0.064;2024-01-27T05:14:00;99299.19;;;4.30;77.02
83691;BME280;73671;43.220;0.064;2024-01-27T05:16:26;99301.94;;;4.11;78.65
83691;BME280;73671;43.220;0.064;2024-01-27T05:18:51;99306.63;;;4.37;77.84
83691;BME280;73671;43.220;0.064;2024-01-27T05:21:16;99304.19;;;4.55;76.78
83691;BME280;73671;43.220;0.064;2024-01-27T05:23:42;99303.22;;;4.66;76.61
83691;BME280;73671;43.220;0.064;2024-01-27T05:26:08;99298.75;;;4.78;76.55
83691;BME280;73671;43.220;0.064;2024-01-27T05:28:33;99302.66;;;4.80;75.99
83691;BME280;73671;43.220;0.064;2024-01-27T05:30:59;99297.34;;;4.87;76.68
83691;BME280;73671;43.220;0.064;2024-01-27T05:33:24;99302.50;;;4.96;75.80
83691;BME280;73671;43.220;0.064;2024-01-27T05:35:49;99302.94;;;5.02;75.77
83691;BME280;73671;43.220;0.064;2024-01-27T05:38:15;99304.09;;;5.01;75.63
83691;BME280;73671;43.220;0.064;2024-01-27T05:40:41;99306.53;;;4.83;75.71
83691;BME280;73671;43.220;0.064;2024-01-27T05:43:07;99311.16;;;4.82;76.03
83691;BME280;73671;43.220;0.064;2024-01-27T05:45:32;99308.56;;;4.89;75.88
83691;BME280;73671;43.220;0.064;2024-01-27T05:47:57;99311.25;;;4.89;75.72
83691;BME280;73671;43.220;0.064;2024-01-27T05:50:23;99307.31;;;4.83;76.00
83691;BME280;73671;43.220;0.064;2024-01-27T05:52:48;99297.56;;;4.75;76.47
83691;BME280;73671;43.220;0.064;2024-01-27T05:55:13;99298.41;;;4.79;75.88
83691;BME280;73671;43.220;0.064;2024-01-27T05:57:39;99297.78;;;4.63;76.10
83691;BME280;73671;43.220;0.064;2024-01-27T06:00:05;99293.19;;;4.67;75.66
83691;BME280;73671;43.220;0.064;2024-01-27T06:02:30;99300.66;;;4.51;76.21
83691;BME280;73671;43.220;0.064;2024-01-27T06:04:56;99295.84;;;4.37;75.71
83691;BME280;73671;43.220;0.064;2024-01-27T06:07:21;99294.22;;;4.09;76.68
83691;BME280;73671;43.220;0.064;2024-01-27T06:09:46;99295.75;;;3.87;77.06
83691;BME280;73671;43.220;0.064;2024-01-27T06:12:12;99285.66;;;4.03;76.63
83691;BME280;73671;43.220;0.064;2024-01-27T06:14:37;99286.72;;;4.22;76.02
83691;BME280;73671;43.220;0.064;2024-01-27T06:17:04;99280.31;;;4.30;75.11
83691;BME280;73671;43.220;0.064;2024-01-27T06:19:30;99279.84;;;4.01;76.25
83691;BME280;73671;43.220;0.064;2024-01-27T06:21:55;99282.78;;;4.16;75.52
83691;BME280;73671;43.220;0.064;2024-01-27T06:24:21;99284.31;;;3.71;77.02
83691;BME280;73671;43.220;0.064;2024-01-27T06:26:46;99285.75;;;3.45;78.12
83691;BME280;73671;43.220;0.064;2024-01-27T06:29:11;99282.63;;;3.43;77.88
83691;BME280;73671;43.220;0.064;2024-01-27T06:31:37;99280.66;;;3.21;78.20
83691;BME280;73671;43.220;0.064;2024-01-27T06:34:02;99280.22;;;3.38;78.04
83691;BME280;73671;43.220;0.064;2024-01-27T06:36:27;99279.78;;;3.55;77.48
83691;BME280;73671;43.220;0.064;2024-01-27T06:38:53;99275.25;;;3.40;77.81
83691;BME280;73671;43.220;0.064;2024-01-27T06:41:19;99274.97;;;3.45;77.72
83691;BME280;73671;43.220;0.064;2024-01-27T06:43:45;99285.13;;;3.75;77.36
83691;BME280;73671;43.220;0.064;2024-01-27T06:46:10;99285.72;;;3.65;77.43
83691;BME280;73671;43.220;0.064;2024-01-27T06:48:35;99281.91;;;3.66;77.58
83691;BME280;73671;43.220;0.064;2024-01-27T06:51:01;99273.22;;;3.76;77.10
83691;BME280;73671;43.220;0.064;2024-01-27T06:53:27;99283.28;;;3.79;76.58
83691;BME280;73671;43.220;0.064;2024-01-27T06:55:52;99285.56;;;3.77;76.40
83691;BME280;73671;43.220;0.064;2024-01-27T06:58:17;99292.34;;;3.90;76.57
83691;BME280;73671;43.220;0.064;2024-01-27T07:00:43;99283.66;;;4.00;75.93
83691;BME280;73671;43.220;0.064;2024-01-27T07:03:10;99281.81;;;4.04;75.85
83691;BME280;73671;43.220;0.064;2024-01-27T07:05:35;99281.28;;;3.95;76.21
83691;BME280;73671;43.220;0.064;2024-01-27T07:08:05;99284.50;;;4.04;76.43
83691;BME280;73671;43.220;0.064;2024-01-27T07:10:31;99291.56;;;4.13;76.20
83691;BME280;73671;43.220;0.064;2024-01-27T07:12:56;99289.28;;;4.15;75.35
83691;BME280;73671;43.220;0.064;2024-01-27T07:15:22;99286.28;;;4.20;75.84
83691;BME280;73671;43.220;0.064;2024-01-27T07:17:49;99287.13;;;4.24;75.51
83691;BME280;73671;43.220;0.064;2024-01-27T07:20:14;99286.41;;;4.27;75.39
83691;BME280;73671;43.220;0.064;2024-01-27T07:22:39;99286.16;;;4.13;75.10
83691;BME280;73671;43.220;0.064;2024-01-27T07:25:05;99286.59;;;3.92;75.68
83691;BME280;73671;43.220;0.064;2024-01-27T07:27:32;99279.47;;;3.80;75.84
83691;BME280;73671;43.220;0.064;2024-01-27T07:29:57;99283.41;;;3.86;75.99
83691;BME280;73671;43.220;0.064;2024-01-27T07:32:22;99287.91;;;3.78;76.02
83691;BME280;73671;43.220;0.064;2024-01-27T07:34:48;99286.75;;;3.79;76.56
83691;BME280;73671;43.220;0.064;2024-01-27T07:37:13;99280.50;;;3.95;75.54
83691;BME280;73671;43.220;0.064;2024-01-27T07:39:39;99279.78;;;3.98;75.78
83691;BME280;73671;43.220;0.064;2024-01-27T07:42:04;99286.06;;;4.06;75.70
83691;BME280;73671;43.220;0.064;2024-01-27T07:44:29;99294.97;;;4.10;75.69
83691;BME280;73671;43.220;0.064;2024-01-27T07:46:55;99296.25;;;4.16;75.28
83691;BME280;73671;43.220;0.064;2024-01-27T07:49:20;99297.63;;;4.06;75.80
83691;BME280;73671;43.220;0.064;2024-01-27T07:51:45;99293.88;;;4.11;75.12
83691;BME280;73671;43.220;0.064;2024-01-27T07:54:11;99302.78;;;4.15;75.37
83691;BME280;73671;43.220;0.064;2024-01-27T07:56:37;99300.63;;;4.24;75.87
83691;BME280;73671;43.220;0.064;2024-01-27T07:59:03;99303.31;;;4.24;75.29
83691;BME280;73671;43.220;0.064;2024-01-27T08:01:28;99306.00;;;4.24;75.02
83691;BME280;73671;43.220;0.064;2024-01-27T08:03:54;99302.19;;;4.25;74.93
83691;BME280;73671;43.220;0.064;2024-01-27T08:06:27;99308.03;;;4.31;74.80
83691;BME280;73671;43.220;0.064;2024-01-27T08:08:52;99305.47;;;4.38;74.32
83691;BME280;73671;43.220;0.064;2024-01-27T08:11:18;99307.50;;;4.44;74.91
83691;BME280;73671;43.220;0.064;2024-01-27T08:13:44;99304.06;;;4.47;74.69
83691;BME280;73671;43.220;0.064;2024-01-27T08:16:09;99306.03;;;4.51;74.32
83691;BME280;73671;43.220;0.064;2024-01-27T08:18:40;99301.91;;;4.57;74.32
83691;BME280;73671;43.220;0.064;2024-01-27T08:21:07;99301.81;;;4.50;74.76
83691;BME280;73671;43.220;0.064;2024-01-27T08:23:33;99297.69;;;4.59;74.29
83691;BME280;73671;43.220;0.064;2024-01-27T08:25:58;99305.47;;;4.64;73.83
83691;BME280;73671;43.220;0.064;2024-01-27T08:28:24;99310.94;;;4.68;73.96
83691;BME280;73671;43.220;0.064;2024-01-27T08:30:49;99304.81;;;4.71;73.92
83691;BME280;73671;43.220;0.064;2024-01-27T08:33:14;99311.81;;;4.76;73.84
83691;BME280;73671;43.220;0.064;2024-01-27T08:35:40;99314.97;;;4.81;73.85
83691;BME280;73671;43.220;0.064;2024-01-27T08:38:05;99313.22;;;4.93;73.52
83691;BME280;73671;43.220;0.064;2024-01-27T08:40:31;99318.72;;;5.00;73.97
83691;BME280;73671;43.220;0.064;2024-01-27T08:42:57;99313.00;;;5.05;73.65
83691;BME280;73671;43.220;0.064;2024-01-27T08:45:22;99316.94;;;5.11;74.47
83691;BME280;73671;43.220;0.064;2024-01-27T08:47:48;99320.50;;;5.19;73.95
83691;BME280;73671;43.220;0.064;2024-01-27T08:50:14;99316.72;;;5.23;73.64
83691;BME280;73671;43.220;0.064;2024-01-27T08:52:39;99314.09;;;5.30;73.94
83691;BME280;73671;43.220;0.064;2024-01-27T08:55:05;99325.41;;;5.40;74.03
83691;BME280;73671;43.220;0.064;2024-01-27T08:57:30;99325.78;;;5.38;74.13
83691;BME280;73671;43.220;0.064;2024-01-27T08:59:56;99318.94;;;5.48;73.85
83691;BME280;73671;43.220;0.064;2024-01-27T09:02:21;99320.19;;;5.54;74.20
83691;BME280;73671;43.220;0.064;2024-01-27T09:04:46;99313.63;;;5.55;74.09
83691;BME280;73671;43.220;0.064;2024-01-27T09:07:15;99311.75;;;5.59;73.43
83691;BME280;73671;43.220;0.064;2024-01-27T09:09:41;99315.28;;;5.63;73.15
83691;BME280;73671;43.220;0.064;2024-01-27T09:12:06;99319.16;;;5.66;73.39
83691;BME280;73671;43.220;0.064;2024-01-27T09:14:33;99316.47;;;5.69;73.35
83691;BME280;73671;43.220;0.064;2024-01-27T09:17:01;99323.94;;;5.80;72.73
83691;BME280;73671;43.220;0.064;2024-01-27T09:19:27;99318.63;;;5.87;72.71
83691;BME280;73671;43.220;0.064;2024-01-27T09:21:52;99317.56;;;5.95;72.91
83691;BME280;73671;43.220;0.064;2024-01-27T09:24:18;99318.00;;;6.01;72.67
83691;BME280;73671;43.220;0.064;2024-01-27T09:26:43;99321.16;;;6.06;72.36
83691;BME280;73671;43.220;0.064;2024-01-27T09:29:08;99315.00;;;6.09;72.20
83691;BME280;73671;43.220;0.064;2024-01-27T09:31:34;99318.84;;;6.08;72.34
83691;BME280;73671;43.220;0.064;2024-01-27T09:34:00;99323.91;;;6.10;72.30
83691;BME280;73671;43.220;0.064;2024-01-27T09:36:26;99318.91;;;6.15;72.11
83691;BME280;73671;43.220;0.064;2024-01-27T09:38:51;99322.09;;;6.25;72.01
83691;BME280;73671;43.220;0.064;2024-01-27T09:41:17;99317.56;;;6.36;72.25
83691;BME280;73671;43.220;0.064;2024-01-27T09:43:44;99314.53;;;6.45;71.61
83691;BME280;73671;43.220;0.064;2024-01-27T09:46:14;99311.47;;;6.46;71.47
83691;BME280;73671;43.220;0.064;2024-01-27T09:48:40;99313.88;;;6.58;71.05
83691;BME280;73671;43.220;0.064;2024-01-27T09:51:07;99318.56;;;6.65;70.98
83691;BME280;73671;43.220;0.064;2024-01-27T09:53:33;99319.38;;;6.73;70.23
83691;BME280;73671;43.220;0.064;2024-01-27T09:55:59;99313.28;;;6.90;70.72
83691;BME280;73671;43.220;0.064;2024-01-27T09:58:28;99309.50;;;6.98;70.71
83691;BME280;73671;43.220;0.064;2024-01-27T10:00:56;99308.41;;;7.14;70.20
83691;BME280;73671;43.220;0.064;2024-01-27T10:03:23;99310.41;;;7.24;69.88
83691;BME280;73671;43.220;0.064;2024-01-27T10:05:51;99311.94;;;7.25;69.55
83691;BME280;73671;43.220;0.064;2024-01-27T10:08:17;99302.31;;;7.35;68.87
83691;BME280;73671;43.220;0.064;2024-01-27T10:10:42;99306.25;;;7.52;69.60
83691;BME280;73671;43.220;0.064;2024-01-27T10:13:10;99310.19;;;7.72;68.66
83691;BME280;73671;43.220;0.064;2024-01-27T10:15:39;99312.53;;;7.81;68.67
83691;BME280;73671;43.220;0.064;2024-01-27T10:18:07;99305.22;;;8.03;67.31
83691;BME280;73671;43.220;0.064;2024-01-27T10:20:33;99304.47;;;8.17;67.79
83691;BME280;73671;43.220;0.064;2024-01-27T10:23:09;99306.06;;;8.43;67.20
83691;BME280;73671;43.220;0.064;2024-01-27T10:25:40;99309.13;;;8.81;65.48
83691;BME280;73671;43.220;0.064;2024-01-27T10:28:06;99316.41;;;9.12;65.65
83691;BME280;73671;43.220;0.064;2024-01-27T10:30:33;99313.66;;;9.27;63.99
83691;BME280;73671;43.220;0.064;2024-01-27T10:32:59;99309.47;;;9.92;63.53
83691;BME280;73671;43.220;0.064;2024-01-27T10:35:25;99305.25;;;10.44;60.88
83691;BME280;73671;43.220;0.064;2024-01-27T10:37:54;99296.25;;;10.92;59.19
83691;BME280;73671;43.220;0.064;2024-01-27T10:40:21;99301.53;;;11.71;57.81
83691;BME280;73671;43.220;0.064;2024-01-27T10:43:04;99307.66;;;12.37;55.46
83691;BME280;73671;43.220;0.064;2024-01-27T10:45:38;99303.13;;;13.17;54.76
83691;BME280;73671;43.220;0.064;2024-01-27T10:48:04;99305.25;;;14.02;53.55
83691;BME280;73671;43.220;0.064;2024-01-27T10:50:35;99303.22;;;14.06;52.78
83691;BME280;73671;43.220;0.064;2024-01-27T10:53:03;99293.56;;;14.34;50.37
83691;BME280;73671;43.220;0.064;2024-01-27T10:55:30;91909.84;;;15.03;100.00
83691;BME280;73671;43.220;0.064;2024-01-27T10:57:57;99285.25;;;15.42;48.59
83691;BME280;73671;43.220;0.064;2024-01-27T11:00:24;99281.31;;;15.56;47.92
83691;BME280;73671;43.220;0.064;2024-01-27T11:02:52;99277.19;;;15.64;48.60
83691;BME280;73671;43.220;0.064;2024-01-27T11:05:20;99277.19;;;15.64;48.60
83691;BME280;73671;43.220;0.064;2024-01-27T11:07:46;99277.19;;;15.64;48.60
83691;BME280;73671;43.220;0.064;2024-01-27T11:10:12;99277.19;;;15.64;48.60
83691;BME280;73671;43.220;0.064;2024-01-27T11:12:38;99277.19;;;15.64;48.60
83691;BME280;73671;43.220;0.064;2024-01-27T11:15:05;99275.81;;;16.93;45.16
83691;BME280;73671;43.220;0.064;2024-01-27T11:17:41;99275.81;;;16.93;45.16
83691;BME280;73671;43.220;0.064;2024-01-27T11:20:10;99275.81;;;16.93;45.16
83691;BME280;73671;43.220;0.064;2024-01-27T11:22:37;99249.81;;;18.10;43.20
83691;BME280;73671;43.220;0.064;2024-01-27T11:27:38;99249.81;;;18.10;43.20
83691;BME280;73671;43.220;0.064;2024-01-27T11:30:05;99239.47;;;18.60;41.73
83691;BME280;73671;43.220;0.064;2024-01-27T11:32:30;99239.47;;;18.60;41.73
83691;BME280;73671;43.220;0.064;2024-01-27T11:34:56;99239.47;;;18.60;41.73
83691;BME280;73671;43.220;0.064;2024-01-27T11:37:22;99239.47;;;18.60;41.73
83691;BME280;73671;43.220;0.064;2024-01-27T11:39:51;99218.03;;;18.92;40.74
83691;BME280;73671;43.220;0.064;2024-01-27T11:42:19;99211.75;;;18.63;41.48
83691;BME280;73671;43.220;0.064;2024-01-27T11:44:45;99216.78;;;19.11;41.30
83691;BME280;73671;43.220;0.064;2024-01-27T11:47:16;99216.78;;;19.11;41.30
83691;BME280;73671;43.220;0.064;2024-01-27T11:49:43;99216.78;;;19.11;41.30
83691;BME280;73671;43.220;0.064;2024-01-27T11:52:08;99216.78;;;19.11;41.30
83691;BME280;73671;43.220;0.064;2024-01-27T11:54:33;99216.78;;;19.11;41.30
83691;BME280;73671;43.220;0.064;2024-01-27T11:56:59;99203.16;;;19.50;40.67
83691;BME280;73671;43.220;0.064;2024-01-27T11:59:24;99203.16;;;19.50;40.67
83691;BME280;73671;43.220;0.064;2024-01-27T12:01:50;99203.16;;;19.50;40.67
83691;BME280;73671;43.220;0.064;2024-01-27T12:04:16;99195.34;;;18.60;41.72
83691;BME280;73671;43.220;0.064;2024-01-27T12:06:43;99195.34;;;18.60;41.72
83691;BME280;73671;43.220;0.064;2024-01-27T12:09:09;99195.34;;;18.60;41.72
83691;BME280;73671;43.220;0.064;2024-01-27T12:11:38;99195.34;;;18.60;41.72
83691;BME280;73671;43.220;0.064;2024-01-27T12:14:07;99174.66;;;18.64;42.82
83691;BME280;73671;43.220;0.064;2024-01-27T12:16:33;99174.66;;;18.64;42.82
83691;BME280;73671;43.220;0.064;2024-01-27T12:18:58;99173.63;;;18.34;43.75
83691;BME280;73671;43.220;0.064;2024-01-27T12:21:24;99173.63;;;18.34;43.75
83691;BME280;73671;43.220;0.064;2024-01-27T12:23:51;99173.63;;;18.34;43.75
83691;BME280;73671;43.220;0.064;2024-01-27T12:26:17;99172.06;;;18.24;43.75
83691;BME280;73671;43.220;0.064;2024-01-27T12:28:45;99172.06;;;18.24;43.75
83691;BME280;73671;43.220;0.064;2024-01-27T12:31:11;99172.06;;;18.24;43.75
83691;BME280;73671;43.220;0.064;2024-01-27T12:33:36;99172.06;;;18.24;43.75
83691;BME280;73671;43.220;0.064;2024-01-27T12:36:01;99146.03;;;18.16;45.59
83691;BME280;73671;43.220;0.064;2024-01-27T12:38:27;99135.91;;;18.50;44.90
83691;BME280;73671;43.220;0.064;2024-01-27T12:40:52;99135.91;;;18.50;44.90
83691;BME280;73671;43.220;0.064;2024-01-27T12:43:17;99130.78;;;19.79;42.92
83691;BME280;73671;43.220;0.064;2024-01-27T12:45:43;99121.69;;;19.79;42.84
83691;BME280;73671;43.220;0.064;2024-01-27T12:48:08;99125.41;;;20.53;42.22
83691;BME280;73671;43.220;0.064;2024-01-27T12:50:34;99116.38;;;21.12;40.50
83691;BME280;73671;43.220;0.064;2024-01-27T12:52:59;99116.38;;;21.12;40.50
83691;BME280;73671;43.220;0.064;2024-01-27T12:55:25;99115.47;;;21.92;39.68
83691;BME280;73671;43.220;0.064;2024-01-27T12:57:50;125157.41;;;-146.39;39.07
83691;BME280;73671;43.220;0.064;2024-01-27T13:00:16;71229.28;;;-146.39;100.00
83691;BME280;73671;43.220;0.064;2024-01-27T13:02:42;71229.28;;;-146.39;100.00